createdAt,value
2022-12-14T00:00:09.082Z,939.5062256
2022-12-14T00:01:09.719Z,939.4870605
2022-12-14T00:02:10.221Z,939.484375
2022-12-14T00:03:11.962Z,939.5441284
2022-12-14T00:04:12.430Z,939.5584106
2022-12-14T00:05:12.962Z,939.5214233
2022-12-14T00:06:13.799Z,939.4872437
2022-12-14T00:07:14.270Z,939.5206299
2022-12-14T00:08:14.876Z,939.4893799
2022-12-14T00:09:15.423Z,939.5336914
2022-12-14T00:10:16.045Z,939.477478
2022-12-14T00:11:16.638Z,939.4888916
2022-12-14T00:12:17.143Z,939.4404907
2022-12-14T00:13:18.763Z,939.3961792
2022-12-14T00:14:19.349Z,939.3989258
2022-12-14T00:15:20.505Z,939.37146
2022-12-14T00:16:21.248Z,939.3347778
2022-12-14T00:17:21.663Z,939.3347778
2022-12-14T00:18:22.777Z,939.3186035
2022-12-14T00:19:23.113Z,939.3203125
2022-12-14T00:20:54.629Z,939.3250122
2022-12-14T00:21:55.964Z,939.3833618
2022-12-14T00:22:56.411Z,939.3490601
2022-12-14T00:23:57.866Z,939.3353271
2022-12-14T00:24:58.404Z,939.3604736
2022-12-14T00:25:59.070Z,939.3531494
2022-12-14T00:26:59.689Z,939.404541
2022-12-14T00:28:00.276Z,939.390625
2022-12-14T00:29:00.820Z,939.463623
2022-12-14T00:30:01.317Z,939.4162598
2022-12-14T00:31:02.221Z,939.4237671
2022-12-14T00:32:02.717Z,939.3636475
2022-12-14T00:33:04.405Z,939.3456421
2022-12-14T00:34:04.928Z,939.3403931
2022-12-14T00:35:05.499Z,939.3451538
2022-12-14T00:36:06.051Z,939.4405518
2022-12-14T00:37:07.404Z,939.4056396
2022-12-14T00:38:08.062Z,939.4362793
2022-12-14T00:39:08.696Z,939.3897095
2022-12-14T00:40:09.387Z,939.4039917
2022-12-14T00:41:09.884Z,939.4335938
2022-12-14T00:42:10.416Z,939.4060669
2022-12-14T00:43:11.888Z,939.40625
2022-12-14T00:44:12.455Z,939.4146729
2022-12-14T00:45:13.135Z,939.3870239
2022-12-14T00:46:14.676Z,939.3005981
2022-12-14T00:47:15.192Z,939.3381958
2022-12-14T00:48:15.852Z,939.3265381
2022-12-14T00:49:16.456Z,939.2565918
2022-12-14T00:50:17.049Z,939.2719727
2022-12-14T00:51:17.611Z,939.2406006
2022-12-14T00:52:18.261Z,939.2443848
2022-12-14T00:53:19.368Z,939.2613525
2022-12-14T00:54:19.940Z,939.2921753
2022-12-14T00:55:20.587Z,939.2358398
2022-12-14T00:56:21.166Z,939.2868652
2022-12-14T00:57:21.680Z,939.2195435
2022-12-14T00:58:22.285Z,939.2631836
2022-12-14T00:59:27.215Z,939.2633667
2022-12-14T01:00:54.260Z,939.2038574
2022-12-14T01:01:55.024Z,939.1901855
2022-12-14T01:02:55.510Z,939.2479858
2022-12-14T01:03:56.830Z,939.2295532
2022-12-14T01:04:57.257Z,939.2081299
2022-12-14T01:05:57.835Z,939.2565918
2022-12-14T01:06:58.879Z,939.2352295
2022-12-14T01:07:59.555Z,939.3041992
2022-12-14T01:09:00.120Z,939.2182617
2022-12-14T01:10:00.701Z,939.2629395
2022-12-14T01:11:01.267Z,939.2463989
2022-12-14T01:12:02.373Z,939.2129517
2022-12-14T01:13:03.058Z,939.1801758
2022-12-14T01:14:04.121Z,939.1369019
2022-12-14T01:15:04.613Z,939.1245117
2022-12-14T01:16:05.967Z,939.1950684
2022-12-14T01:17:06.371Z,939.2124023
2022-12-14T01:18:07.159Z,939.2197876
2022-12-14T01:19:07.570Z,939.2223511
2022-12-14T01:20:08.197Z,939.1847534
2022-12-14T01:21:09.370Z,939.1591187
2022-12-14T01:22:09.895Z,939.1897583
2022-12-14T01:23:11.351Z,939.1588135
2022-12-14T01:24:11.856Z,939.1954956
2022-12-14T01:25:13.396Z,939.1003418
2022-12-14T01:26:14.002Z,939.1310425
2022-12-14T01:27:14.641Z,939.1101685
2022-12-14T01:28:15.259Z,939.1256104
2022-12-14T01:29:15.824Z,939.1459961
2022-12-14T01:30:16.442Z,939.1072388
2022-12-14T01:31:17.192Z,939.1386108
2022-12-14T01:32:17.736Z,939.1195068
2022-12-14T01:33:18.886Z,939.1713867
2022-12-14T01:34:19.564Z,939.2393799
2022-12-14T01:35:20.109Z,939.1604614
2022-12-14T01:36:20.724Z,939.2231445
2022-12-14T01:37:21.229Z,939.1663818
2022-12-14T01:38:21.766Z,939.2437744
2022-12-14T01:39:22.765Z,939.1537476
2022-12-14T01:40:54.245Z,939.2131348
2022-12-14T01:41:54.767Z,939.2332153
2022-12-14T01:42:55.368Z,939.2290039
2022-12-14T01:43:56.646Z,939.1972046
2022-12-14T01:44:57.112Z,939.2575073
2022-12-14T01:45:58.356Z,939.2139893
2022-12-14T01:46:58.908Z,939.2288818
2022-12-14T01:47:59.425Z,939.2185669
2022-12-14T01:49:00.124Z,939.2781372
2022-12-14T01:50:00.628Z,939.2706299
2022-12-14T01:51:01.222Z,939.1780396
2022-12-14T01:52:01.811Z,939.0734253
2022-12-14T01:53:02.314Z,939.0606079
2022-12-14T01:54:03.858Z,939.0471191
2022-12-14T01:55:04.315Z,939.1188965
2022-12-14T01:56:05.484Z,939.0935669
2022-12-14T01:57:06.079Z,939.1452637
2022-12-14T01:58:06.577Z,939.1824951
2022-12-14T01:59:07.127Z,939.1203003
2022-12-14T02:00:07.885Z,939.1429443
2022-12-14T02:01:08.340Z,939.213501
2022-12-14T02:02:09.061Z,939.2366333
2022-12-14T02:03:09.568Z,939.2318726
2022-12-14T02:04:10.818Z,939.2614136
2022-12-14T02:05:11.298Z,939.2717285
2022-12-14T02:06:12.018Z,939.114502
2022-12-14T02:07:12.608Z,939.0731201
2022-12-14T02:08:13.091Z,939.0448608
2022-12-14T02:09:13.870Z,939.038147
2022-12-14T02:10:14.358Z,939.0730591
2022-12-14T02:11:14.995Z,939.0557861
2022-12-14T02:12:15.549Z,939.0593872
2022-12-14T02:13:16.050Z,939.1439209
2022-12-14T02:14:17.293Z,939.1212769
2022-12-14T02:15:17.812Z,939.0337524
2022-12-14T02:16:18.996Z,938.9942017
2022-12-14T02:17:19.562Z,938.901123
2022-12-14T02:18:20.063Z,938.9598389
2022-12-14T02:19:20.770Z,938.9448242
2022-12-14T02:20:21.225Z,938.9732666
2022-12-14T02:21:21.829Z,938.9475708
2022-12-14T02:22:53.030Z,938.9874878
2022-12-14T02:23:54.360Z,938.987793
2022-12-14T02:24:54.861Z,938.9831543
2022-12-14T02:25:55.476Z,938.9624023
2022-12-14T02:26:56.073Z,938.946228
2022-12-14T02:27:56.625Z,939.0020142
2022-12-14T02:28:57.288Z,939.0181274
2022-12-14T02:29:57.819Z,939.0304565
2022-12-14T02:30:58.431Z,939.0234985
2022-12-14T02:31:59.860Z,939.0049438
2022-12-14T02:33:00.531Z,939.0103149
2022-12-14T02:34:01.866Z,938.9983521
2022-12-14T02:35:02.519Z,938.8323364
2022-12-14T02:36:03.126Z,938.8411865
2022-12-14T02:37:03.651Z,938.836853
2022-12-14T02:38:04.348Z,938.8693848
2022-12-14T02:39:04.848Z,938.8297119
2022-12-14T02:40:05.397Z,938.8518677
2022-12-14T02:41:05.985Z,938.8739624
2022-12-14T02:42:06.493Z,938.8153076
2022-12-14T02:43:07.092Z,938.6436157
2022-12-14T02:44:08.424Z,938.5534668
2022-12-14T02:45:09.108Z,938.6434326
2022-12-14T02:46:09.903Z,938.6450195
2022-12-14T02:47:10.382Z,938.6624756
2022-12-14T02:48:10.997Z,938.6722412
2022-12-14T02:49:11.567Z,938.5820313
2022-12-14T02:50:12.273Z,938.6418457
2022-12-14T02:51:12.850Z,938.704895
2022-12-14T02:52:13.383Z,938.6817017
2022-12-14T02:53:14.006Z,938.6486206
2022-12-14T02:54:15.123Z,938.6118774
2022-12-14T02:55:15.752Z,938.6165771
2022-12-14T02:56:16.864Z,938.5800171
2022-12-14T02:57:17.539Z,938.5133667
2022-12-14T02:58:18.110Z,938.5509644
2022-12-14T02:59:18.616Z,938.5750122
2022-12-14T03:00:19.282Z,938.6311035
2022-12-14T03:01:19.832Z,938.725769
2022-12-14T03:02:20.547Z,938.7282715
2022-12-14T03:03:21.021Z,938.6914063
2022-12-14T03:04:52.474Z,938.7817383
2022-12-14T03:05:53.031Z,938.7776489
2022-12-14T03:06:53.667Z,938.7228394
2022-12-14T03:07:54.281Z,938.694519
2022-12-14T03:08:54.844Z,938.6674805
2022-12-14T03:09:55.424Z,938.6478271
2022-12-14T03:10:55.975Z,938.6813965
2022-12-14T03:11:56.608Z,938.6362305
2022-12-14T03:12:57.183Z,938.6732178
2022-12-14T03:13:58.351Z,938.6732788
2022-12-14T03:14:58.963Z,938.7140503
2022-12-14T03:15:59.550Z,938.6601563
2022-12-14T03:17:00.733Z,938.6691284
2022-12-14T03:18:01.253Z,938.6685791
2022-12-14T03:19:01.962Z,938.6687622
2022-12-14T03:20:02.557Z,938.5925903
2022-12-14T03:21:03.128Z,938.5909424
2022-12-14T03:22:03.760Z,938.6070557
2022-12-14T03:23:04.253Z,938.5595093
2022-12-14T03:24:04.825Z,938.5456543
2022-12-14T03:25:06.171Z,938.5829468
2022-12-14T03:26:06.816Z,938.4715576
2022-12-14T03:27:07.277Z,938.4620361
2022-12-14T03:28:07.844Z,938.5585327
2022-12-14T03:29:08.460Z,938.5968628
2022-12-14T03:30:08.943Z,938.5581055
2022-12-14T03:31:09.738Z,938.4836426
2022-12-14T03:32:10.166Z,938.4614258
2022-12-14T03:33:10.731Z,938.4387207
2022-12-14T03:34:13.495Z,938.395752
2022-12-14T03:35:12.366Z,938.4001465
2022-12-14T03:36:13.113Z,938.3677368
2022-12-14T03:37:13.635Z,938.3774414
2022-12-14T03:38:14.287Z,938.3585815
2022-12-14T03:39:15.849Z,938.4095459
2022-12-14T03:40:16.359Z,938.3962402
2022-12-14T03:41:17.005Z,938.3720093
2022-12-14T03:42:17.495Z,938.3339844
2022-12-14T03:43:18.192Z,938.3450928
2022-12-14T03:44:19.340Z,938.3180542
2022-12-14T03:45:19.863Z,938.2687378
2022-12-14T03:46:20.530Z,938.2490845
2022-12-14T03:47:51.964Z,938.2893677
2022-12-14T03:48:52.669Z,938.3047485
2022-12-14T03:49:53.190Z,938.3021851
2022-12-14T03:50:53.836Z,938.3452148
2022-12-14T03:51:54.367Z,938.3175049
2022-12-14T03:52:54.975Z,938.3515625
2022-12-14T03:53:55.517Z,938.336853
2022-12-14T03:54:56.646Z,938.3163452
2022-12-14T03:55:57.377Z,938.2870483
2022-12-14T03:56:57.917Z,938.3465576
2022-12-14T03:57:58.399Z,938.3710327
2022-12-14T03:58:58.986Z,938.3063965
2022-12-14T03:59:59.508Z,938.2583008
2022-12-14T04:01:00.199Z,938.2783813
2022-12-14T04:02:00.929Z,938.2307739
2022-12-14T04:03:01.483Z,938.2679443
2022-12-14T04:04:01.979Z,938.2498169
2022-12-14T04:05:03.207Z,938.28125
2022-12-14T04:06:03.812Z,938.3099976
2022-12-14T04:07:04.407Z,938.258606
2022-12-14T04:08:05.009Z,938.3070068
2022-12-14T04:09:06.348Z,938.2076416
2022-12-14T04:10:06.982Z,938.2020264
2022-12-14T04:11:07.531Z,938.2301636
2022-12-14T04:12:08.103Z,938.2253418
2022-12-14T04:13:08.889Z,938.1102295
2022-12-14T04:14:09.411Z,938.1231079
2022-12-14T04:15:10.588Z,938.1317749
2022-12-14T04:16:11.325Z,938.0834351
2022-12-14T04:17:11.860Z,938.0914307
2022-12-14T04:18:13.310Z,938.1277466
2022-12-14T04:19:13.841Z,938.1052856
2022-12-14T04:20:14.462Z,938.0840454
2022-12-14T04:21:14.987Z,938.0773926
2022-12-14T04:22:15.543Z,938.059082
2022-12-14T04:23:16.055Z,938.0282593
2022-12-14T04:24:16.614Z,938.0437622
2022-12-14T04:25:18.227Z,938.0804443
2022-12-14T04:26:18.781Z,938.0933838
2022-12-14T04:27:19.362Z,938.0482788
2022-12-14T04:28:19.971Z,938.0797119
2022-12-14T04:29:20.982Z,938.0321655
2022-12-14T04:30:52.034Z,938.0316162
2022-12-14T04:31:52.754Z,938.0427856
2022-12-14T04:32:54.164Z,938.0859985
2022-12-14T04:33:54.631Z,938.0193481
2022-12-14T04:34:56.263Z,938.0284424
2022-12-14T04:35:56.796Z,937.9829712
2022-12-14T04:36:57.400Z,937.9681396
2022-12-14T04:37:58.001Z,937.9969482
2022-12-14T04:38:58.491Z,937.9440918
2022-12-14T04:39:59.072Z,937.8613892
2022-12-14T04:40:59.632Z,937.9379883
2022-12-14T04:42:00.312Z,937.8967285
2022-12-14T04:43:00.902Z,937.8532715
2022-12-14T04:44:01.398Z,937.7785645
2022-12-14T04:45:02.702Z,937.8103638
2022-12-14T04:46:03.258Z,937.8878784
2022-12-14T04:47:03.785Z,937.8433838
2022-12-14T04:48:04.369Z,937.8986206
2022-12-14T04:49:04.891Z,937.7988281
2022-12-14T04:50:05.505Z,937.821228
2022-12-14T04:51:06.027Z,937.7892456
2022-12-14T04:52:06.584Z,937.8577881
2022-12-14T04:53:07.165Z,937.847168
2022-12-14T04:54:07.700Z,937.807373
2022-12-14T04:55:09.251Z,937.7502441
2022-12-14T04:56:09.785Z,937.7327271
2022-12-14T04:57:13.289Z,937.7402344
2022-12-14T04:58:10.980Z,937.729248
2022-12-14T04:59:12.406Z,937.7016602
2022-12-14T05:00:12.997Z,937.6325073
2022-12-14T05:01:13.718Z,937.6585083
2022-12-14T05:02:14.288Z,937.6620483
2022-12-14T05:03:14.804Z,937.6942139
2022-12-14T05:04:15.308Z,937.7924805
2022-12-14T05:05:16.626Z,937.7487793
2022-12-14T05:06:17.195Z,937.6925049
2022-12-14T05:07:17.765Z,937.7006226
2022-12-14T05:08:18.307Z,937.6645508
2022-12-14T05:09:19.329Z,937.6004639
2022-12-14T05:10:20.401Z,937.5783691
2022-12-14T05:11:54.086Z,937.6290894
2022-12-14T05:12:51.922Z,937.5856934
2022-12-14T05:13:52.571Z,937.6189575
2022-12-14T05:14:53.855Z,937.5951538
2022-12-14T05:15:54.338Z,937.607666
2022-12-14T05:16:55.031Z,937.5786133
2022-12-14T05:17:55.603Z,937.6073608
2022-12-14T05:18:56.152Z,937.5459595
2022-12-14T05:19:57.683Z,937.5353394
2022-12-14T05:20:58.238Z,937.5535889
2022-12-14T05:21:58.840Z,937.5593872
2022-12-14T05:22:59.416Z,937.4735718
2022-12-14T05:24:00.197Z,937.4299927
2022-12-14T05:25:01.344Z,937.4851685
2022-12-14T05:26:01.898Z,937.4747925
2022-12-14T05:27:02.407Z,937.5632935
2022-12-14T05:28:03.006Z,937.5623169
2022-12-14T05:29:03.594Z,937.4788818
2022-12-14T05:30:04.250Z,937.4579468
2022-12-14T05:31:04.909Z,937.5074463
2022-12-14T05:32:05.411Z,937.5187378
2022-12-14T05:33:05.998Z,937.5079956
2022-12-14T05:34:06.584Z,937.5161133
2022-12-14T05:35:07.172Z,937.5700073
2022-12-14T05:36:07.729Z,937.5907593
2022-12-14T05:37:10.511Z,937.5690918
2022-12-14T05:38:08.970Z,937.5250854
2022-12-14T05:39:09.485Z,937.4724731
2022-12-14T05:40:10.122Z,937.4431152
2022-12-14T05:41:10.731Z,937.4135742
2022-12-14T05:42:11.339Z,937.3861084
2022-12-14T05:43:11.944Z,937.3998413
2022-12-14T05:44:12.496Z,937.4338989
2022-12-14T05:45:13.892Z,937.3942261
2022-12-14T05:46:14.525Z,937.3226318
2022-12-14T05:47:15.845Z,937.3119507
2022-12-14T05:48:16.362Z,937.2553711
2022-12-14T05:49:17.068Z,937.2310791
2022-12-14T05:50:17.644Z,937.196167
2022-12-14T05:51:18.183Z,937.196106
2022-12-14T05:52:18.843Z,937.1325073
2022-12-14T05:53:19.412Z,937.170166
2022-12-14T05:54:50.530Z,937.2173462
2022-12-14T05:55:51.607Z,937.1599731
2022-12-14T05:56:52.519Z,937.1426392
2022-12-14T05:57:53.073Z,937.0869751
2022-12-14T05:58:53.592Z,937.1126709
2022-12-14T05:59:54.323Z,937.0999146
2022-12-14T06:00:54.830Z,937.1005249
2022-12-14T06:01:55.406Z,937.1266479
2022-12-14T06:02:55.998Z,937.1851807
2022-12-14T06:03:56.615Z,937.2525635
2022-12-14T06:04:57.892Z,937.2143555
2022-12-14T06:05:58.347Z,937.1661987
2022-12-14T06:06:58.973Z,937.1891479
2022-12-14T06:07:59.587Z,937.1456299
2022-12-14T06:09:00.102Z,937.1688843
2022-12-14T06:10:00.830Z,937.2079468
2022-12-14T06:11:02.119Z,937.1828613
2022-12-14T06:12:02.729Z,937.1538086
2022-12-14T06:13:03.272Z,937.1299438
2022-12-14T06:14:03.806Z,937.1779785
2022-12-14T06:15:05.407Z,937.1572876
2022-12-14T06:16:05.899Z,937.2370605
2022-12-14T06:17:06.519Z,937.1802979
2022-12-14T06:18:07.043Z,937.2165527
2022-12-14T06:19:08.426Z,937.2129517
2022-12-14T06:20:09.040Z,937.1558838
2022-12-14T06:21:09.586Z,937.1281128
2022-12-14T06:22:10.293Z,937.1309204
2022-12-14T06:23:10.810Z,937.1677856
2022-12-14T06:24:11.467Z,937.1540527
2022-12-14T06:25:12.858Z,937.112793
2022-12-14T06:26:13.352Z,937.0820923
2022-12-14T06:27:13.987Z,937.1115723
2022-12-14T06:28:14.498Z,937.0990601
2022-12-14T06:29:15.832Z,937.0742188
2022-12-14T06:30:16.368Z,937.111084
2022-12-14T06:31:16.963Z,937.0601807
2022-12-14T06:32:17.488Z,937.0893555
2022-12-14T06:33:18.026Z,937.1165771
2022-12-14T06:34:19.195Z,937.142334
2022-12-14T06:35:50.692Z,937.147644
2022-12-14T06:36:51.204Z,937.1037598
2022-12-14T06:37:51.718Z,937.1425171
2022-12-14T06:38:52.479Z,937.2078857
2022-12-14T06:39:54.599Z,937.1532593
2022-12-14T06:40:53.642Z,937.2165527
2022-12-14T06:41:54.168Z,937.2054443
2022-12-14T06:42:54.685Z,937.1897583
2022-12-14T06:43:55.233Z,937.2157593
2022-12-14T06:44:55.748Z,937.2302246
2022-12-14T06:45:57.363Z,937.2081909
2022-12-14T06:46:57.832Z,937.1647949
2022-12-14T06:47:58.451Z,937.0951538
2022-12-14T06:48:59.005Z,937.1096802
2022-12-14T06:50:00.202Z,937.1437378
2022-12-14T06:51:00.809Z,937.1364136
2022-12-14T06:52:01.304Z,937.1079102
2022-12-14T06:53:01.923Z,937.0628662
2022-12-14T06:54:02.460Z,937.0964355
2022-12-14T06:55:03.098Z,937.100769
2022-12-14T06:56:04.619Z,937.1218872
2022-12-14T06:57:05.099Z,937.0806274
2022-12-14T06:58:05.765Z,937.0967407
2022-12-14T06:59:06.292Z,937.0956421
2022-12-14T07:00:06.824Z,937.0818481
2022-12-14T07:01:07.537Z,937.0990601
2022-12-14T07:02:09.081Z,937.1027832
2022-12-14T07:03:09.600Z,937.0848389
2022-12-14T07:04:10.037Z,937.0859375
2022-12-14T07:05:10.704Z,937.0536499
2022-12-14T07:06:12.110Z,937.0713501
2022-12-14T07:07:12.716Z,937.0792847
2022-12-14T07:08:13.225Z,937.1170044
2022-12-14T07:09:13.786Z,937.1245117
2022-12-14T07:10:14.343Z,937.0784912
2022-12-14T07:11:14.874Z,937.1326294
2022-12-14T07:12:15.521Z,937.1311035
2022-12-14T07:13:16.096Z,937.147522
2022-12-14T07:14:16.635Z,937.1737671
2022-12-14T07:15:17.196Z,937.1780396
2022-12-14T07:16:19.160Z,937.2679443
2022-12-14T07:17:50.088Z,937.2695313
2022-12-14T07:18:50.652Z,937.2293701
2022-12-14T07:19:51.225Z,937.3091431
2022-12-14T07:20:51.750Z,937.2862549
2022-12-14T07:21:52.741Z,937.2714844
2022-12-14T07:22:53.207Z,937.2970581
2022-12-14T07:23:53.769Z,937.2583008
2022-12-14T07:24:54.280Z,937.2806396
2022-12-14T07:25:55.590Z,937.2962646
2022-12-14T07:26:56.278Z,937.3153687
2022-12-14T07:27:56.755Z,937.2941895
2022-12-14T07:28:57.329Z,937.2418213
2022-12-14T07:29:57.945Z,937.2173462
2022-12-14T07:30:58.529Z,937.1617432
2022-12-14T07:31:59.114Z,937.1315918
2022-12-14T07:32:59.617Z,937.133667
2022-12-14T07:34:00.337Z,937.1607666
2022-12-14T07:35:00.835Z,937.1896973
2022-12-14T07:36:02.104Z,937.1895142
2022-12-14T07:37:02.740Z,937.1656494
2022-12-14T07:38:03.234Z,937.1535645
2022-12-14T07:39:03.799Z,937.1279907
2022-12-14T07:40:04.400Z,937.1518555
2022-12-14T07:41:04.925Z,937.2037354
2022-12-14T07:42:05.607Z,937.2383423
2022-12-14T07:43:06.094Z,937.3392334
2022-12-14T07:44:06.714Z,937.2904663
2022-12-14T07:45:07.209Z,937.3201294
2022-12-14T07:46:08.732Z,937.312439
2022-12-14T07:47:12.570Z,937.2752075
2022-12-14T07:48:09.706Z,937.326355
2022-12-14T07:49:11.357Z,937.3496704
2022-12-14T07:50:11.842Z,937.1793213
2022-12-14T07:51:12.398Z,937.1509399
2022-12-14T07:52:13.029Z,937.1610107
2022-12-14T07:53:13.528Z,937.1673584
2022-12-14T07:54:14.147Z,937.2146606
2022-12-14T07:55:14.698Z,937.1796875
2022-12-14T07:56:16.237Z,937.192627
2022-12-14T07:57:16.822Z,937.2687378
2022-12-14T07:58:17.409Z,937.2803345
2022-12-14T07:59:17.952Z,937.3092041
2022-12-14T08:00:48.925Z,937.3326416
2022-12-14T08:01:50.459Z,937.3677979
2022-12-14T08:02:51.183Z,937.3258057
2022-12-14T08:03:51.548Z,937.3397827
2022-12-14T08:04:52.106Z,937.3292847
2022-12-14T08:05:53.321Z,937.3265381
2022-12-14T08:06:54.126Z,937.3043823
2022-12-14T08:07:54.375Z,937.3410645
2022-12-14T08:08:54.955Z,937.2991333
2022-12-14T08:09:55.454Z,937.2966919
2022-12-14T08:10:56.039Z,937.1947632
2022-12-14T08:11:56.572Z,937.237793
2022-12-14T08:12:57.170Z,937.199707
2022-12-14T08:13:57.771Z,937.1206055
2022-12-14T08:14:58.282Z,937.1434937
2022-12-14T08:15:59.984Z,937.15271
2022-12-14T08:17:00.489Z,937.1576538
2022-12-14T08:18:01.962Z,937.1885986
2022-12-14T08:19:02.498Z,937.1515503
2022-12-14T08:20:03.012Z,937.1824341
2022-12-14T08:21:03.676Z,937.218811
2022-12-14T08:22:04.224Z,937.1994019
2022-12-14T08:23:04.837Z,937.1911011
2022-12-14T08:24:05.316Z,937.2193604
2022-12-14T08:25:06.008Z,937.2523193
2022-12-14T08:26:07.300Z,937.2454834
2022-12-14T08:27:07.830Z,937.1696777
2022-12-14T08:28:08.504Z,937.2151489
2022-12-14T08:29:09.826Z,937.1286011
2022-12-14T08:30:10.412Z,937.0878296
2022-12-14T08:31:11.089Z,937.09375
2022-12-14T08:32:11.524Z,937.1730347
2022-12-14T08:33:12.144Z,937.2370605
2022-12-14T08:34:12.630Z,937.3167114
2022-12-14T08:35:13.253Z,937.2450562
2022-12-14T08:36:13.788Z,937.2532959
2022-12-14T08:37:14.958Z,937.2366943
2022-12-14T08:38:15.577Z,937.2457886
2022-12-14T08:39:16.046Z,937.2349243
2022-12-14T08:40:16.741Z,937.2217407
2022-12-14T08:41:48.444Z,937.2572632
2022-12-14T08:42:48.982Z,937.2820435
2022-12-14T08:43:49.497Z,937.2171631
2022-12-14T08:44:50.684Z,937.241272
2022-12-14T08:45:51.221Z,937.2165527
2022-12-14T08:46:51.777Z,937.164856
2022-12-14T08:47:52.533Z,937.1817017
2022-12-14T08:48:53.581Z,937.2407837
2022-12-14T08:49:54.151Z,937.3493652
2022-12-14T08:50:54.694Z,937.3652954
2022-12-14T08:51:55.309Z,937.3641357
2022-12-14T08:52:55.878Z,937.3418579
2022-12-14T08:53:56.392Z,937.3133545
2022-12-14T08:54:56.913Z,937.3574829
2022-12-14T08:55:57.425Z,937.3746338
2022-12-14T08:56:58.576Z,937.3996582
2022-12-14T08:57:59.246Z,937.367981
2022-12-14T08:58:59.808Z,937.3323975
2022-12-14T09:00:02.059Z,937.2921143
2022-12-14T09:01:00.974Z,937.3571777
2022-12-14T09:02:01.534Z,937.3312378
2022-12-14T09:03:02.160Z,937.2893677
2022-12-14T09:04:02.526Z,937.2458496
2022-12-14T09:05:03.130Z,937.2927856
2022-12-14T09:06:04.323Z,937.2949829
2022-12-14T09:07:04.818Z,937.3684082
2022-12-14T09:08:06.302Z,937.4133301
2022-12-14T09:09:11.897Z,937.4553223
2022-12-14T09:10:07.374Z,937.5013428
2022-12-14T09:11:07.968Z,937.5098267
2022-12-14T09:12:08.720Z,937.5276489
2022-12-14T09:13:09.391Z,937.512207
2022-12-14T09:14:10.009Z,937.5437622
2022-12-14T09:15:10.571Z,937.4466553
2022-12-14T09:16:11.934Z,937.4398193
2022-12-14T09:17:12.340Z,937.4266968
2022-12-14T09:18:12.968Z,937.3746948
2022-12-14T09:19:14.352Z,937.4104614
2022-12-14T09:20:14.925Z,937.3947144
2022-12-14T09:21:15.479Z,937.4230957
2022-12-14T09:22:16.061Z,937.418457
2022-12-14T09:23:16.689Z,937.3327637
2022-12-14T09:24:48.003Z,937.2468872
2022-12-14T09:25:48.529Z,937.2546997
2022-12-14T09:26:49.573Z,937.3492432
2022-12-14T09:27:50.204Z,937.3354492
2022-12-14T09:28:50.812Z,937.367981
2022-12-14T09:29:51.369Z,937.4224243
2022-12-14T09:30:51.994Z,937.4060669
2022-12-14T09:31:52.576Z,937.3669434
2022-12-14T09:32:54.213Z,937.3659668
2022-12-14T09:33:54.718Z,937.4515381
2022-12-14T09:34:55.444Z,937.3764038
2022-12-14T09:35:55.975Z,937.3048706
2022-12-14T09:36:57.064Z,937.2379761
2022-12-14T09:37:57.723Z,937.1947021
2022-12-14T09:38:58.322Z,937.1928101
2022-12-14T09:39:58.827Z,937.1657715
2022-12-14T09:40:59.306Z,937.1930542
2022-12-14T09:42:01.187Z,937.2070313
2022-12-14T09:43:00.460Z,937.2945557
2022-12-14T09:44:01.064Z,937.262207
2022-12-14T09:45:01.695Z,937.2883301
2022-12-14T09:46:02.238Z,937.3161011
2022-12-14T09:47:03.603Z,937.3116455
2022-12-14T09:48:04.222Z,937.2796631
2022-12-14T09:49:04.742Z,937.3458862
2022-12-14T09:50:06.245Z,937.3273926
2022-12-14T09:51:06.750Z,937.3128052
2022-12-14T09:52:07.351Z,937.3156128
2022-12-14T09:53:07.936Z,937.333252
2022-12-14T09:54:08.437Z,937.288269
2022-12-14T09:55:09.065Z,937.3294678
2022-12-14T09:56:09.590Z,937.3334351
2022-12-14T09:57:11.190Z,937.3687744
2022-12-14T09:58:11.776Z,937.3637695
2022-12-14T09:59:12.467Z,937.3803101
2022-12-14T10:00:13.085Z,937.3192139
2022-12-14T10:01:13.772Z,937.2757568
2022-12-14T10:02:30.194Z,937.3312378
2022-12-14T10:03:14.949Z,937.31427
2022-12-14T10:04:15.525Z,937.329834
2022-12-14T10:05:15.990Z,937.3417358
2022-12-14T10:06:16.602Z,937.3186035
2022-12-14T10:07:48.364Z,937.2911987
2022-12-14T10:08:54.403Z,937.2418823
2022-12-14T10:09:50.063Z,937.3005981
2022-12-14T10:10:50.796Z,937.3518677
2022-12-14T10:11:51.244Z,937.3967896
2022-12-14T10:12:51.781Z,937.3256226
2022-12-14T10:13:52.554Z,937.3214111
2022-12-14T10:14:53.584Z,937.2747803
2022-12-14T10:15:54.275Z,937.2944336
2022-12-14T10:16:55.414Z,937.3462524
2022-12-14T10:17:55.932Z,937.3340454
2022-12-14T10:19:00.081Z,937.2888794
2022-12-14T10:19:57.144Z,937.319519
2022-12-14T10:20:57.750Z,937.2923584
2022-12-14T10:21:58.228Z,937.2684937
2022-12-14T10:22:58.804Z,937.1978149
2022-12-14T10:23:59.350Z,937.2026367
2022-12-14T10:25:00.819Z,937.1665649
2022-12-14T10:26:01.476Z,937.152832
2022-12-14T10:27:01.980Z,937.180603
2022-12-14T10:28:10.778Z,937.2176514
2022-12-14T10:29:04.061Z,937.2852173
2022-12-14T10:30:04.684Z,937.1976318
2022-12-14T10:31:05.219Z,937.1325684
2022-12-14T10:32:05.769Z,937.208252
2022-12-14T10:33:06.269Z,937.1540527
2022-12-14T10:34:12.013Z,937.2296753
2022-12-14T10:35:07.426Z,937.1867065
2022-12-14T10:36:08.109Z,937.1776733
2022-12-14T10:37:09.270Z,937.1596069
2022-12-14T10:38:09.833Z,937.0206909
2022-12-14T10:39:10.326Z,936.9845581
2022-12-14T10:40:15.772Z,937.053894
2022-12-14T10:41:12.267Z,937.0725098
2022-12-14T10:42:12.724Z,937.1375122
2022-12-14T10:43:13.293Z,937.0546265
2022-12-14T10:44:13.776Z,937.0892334
2022-12-14T10:45:39.821Z,937.0628052
2022-12-14T10:46:15.203Z,937.005249
2022-12-14T10:47:16.619Z,936.989502
2022-12-14T10:48:48.344Z,936.9975586
2022-12-14T10:49:48.929Z,937.0067139
2022-12-14T10:50:49.938Z,937.0483398
2022-12-14T10:51:50.127Z,936.9956055
2022-12-14T10:52:50.673Z,936.9550781
2022-12-14T10:53:51.340Z,936.9454956
2022-12-14T10:54:51.935Z,936.8942261
2022-12-14T10:55:52.583Z,936.8400269
2022-12-14T10:56:53.958Z,936.8031006
2022-12-14T10:57:54.403Z,936.7302856
2022-12-14T10:58:54.989Z,936.6738892
2022-12-14T11:00:08.478Z,936.6317139
2022-12-14T11:00:56.221Z,936.6727905
2022-12-14T11:01:57.031Z,936.6617432
2022-12-14T11:02:57.541Z,936.6206055
2022-12-14T11:03:57.959Z,936.6504517
2022-12-14T11:04:58.486Z,936.6702271